Time;durP1;ratioP1;P1;durP2;ratioP2;P2;SDS_P1;SDS_P2;PMS_P1;PMS_P2;Temp;Humidity;BMP_temperature;BMP_pressure;BME280_temperature;BME280_humidity;BME280_pressure;Samples;Min_cycle;Max_cycle;Signal;HPM_P1;HPM_P2
2020/12/01 00:02:26;;;;;;;23.80;16.20;;;;;;;3.91;100.00;100414.53;5225779;28;20035;-79
2020/12/01 00:04:56;;;;;;;24.95;16.40;;;;;;;3.89;100.00;100411.13;5224957;28;20075;-79
2020/12/01 00:07:27;;;;;;;24.08;15.85;;;;;;;3.91;100.00;100406.78;5223969;28;20028;-79
2020/12/01 00:09:57;;;;;;;23.08;15.80;;;;;;;3.99;100.00;100398.06;5224345;28;20108;-79
2020/12/01 00:12:27;;;;;;;20.38;14.82;;;;;;;4.00;100.00;100394.66;5223752;28;20053;-79
2020/12/01 00:14:58;;;;;;;22.67;14.82;;;;;;;3.94;100.00;100392.13;5224236;28;20021;-79
2020/12/01 00:17:28;;;;;;;21.75;14.98;;;;;;;3.84;100.00;100397.41;5223959;28;20445;-79
2020/12/01 00:19:58;;;;;;;20.30;13.93;;;;;;;3.98;100.00;100393.78;5228553;28;20115;-79
2020/12/01 00:22:28;;;;;;;20.80;13.68;;;;;;;4.08;100.00;100382.47;5231147;28;20021;-80
2020/12/01 00:25:00;;;;;;;17.90;13.25;;;;;;;4.05;100.00;100386.81;5232571;28;20471;-80
2020/12/01 00:27:30;;;;;;;18.55;13.40;;;;;;;4.06;100.00;100391.97;5231665;28;20090;-81
2020/12/01 00:30:04;;;;;;;20.55;13.27;;;;;;;4.10;100.00;100393.63;5232893;28;20021;-80
2020/12/01 00:32:34;;;;;;;19.48;12.55;;;;;;;4.12;100.00;100381.53;5231170;28;20021;-76
2020/12/01 00:35:07;;;;;;;19.10;12.05;;;;;;;4.17;100.00;100379.78;5230900;28;20397;-80
2020/12/01 00:37:38;;;;;;;17.75;12.48;;;;;;;4.00;100.00;100386.88;5231132;28;20036;-78
2020/12/01 00:40:09;;;;;;;20.23;12.38;;;;;;;3.87;100.00;100374.97;5232237;28;20025;-80
2020/12/01 00:42:40;;;;;;;15.98;12.18;;;;;;;3.90;100.00;100379.22;5232758;28;20414;-79
2020/12/01 00:45:11;;;;;;;15.32;11.55;;;;;;;3.87;100.00;100377.56;5233059;28;20029;-81
2020/12/01 00:47:42;;;;;;;15.20;11.25;;;;;;;3.87;100.00;100379.28;5231638;28;20029;-81
2020/12/01 00:50:17;;;;;;;15.52;10.98;;;;;;;3.97;100.00;100381.72;5231622;28;20115;-78
2020/12/01 00:52:47;;;;;;;19.67;11.88;;;;;;;4.08;100.00;100384.19;5233268;28;20037;-81
2020/12/01 00:55:18;;;;;;;18.08;12.05;;;;;;;4.10;100.00;100377.28;5231506;28;20136;-79
2020/12/01 00:57:49;;;;;;;17.75;12.95;;;;;;;4.20;100.00;100374.56;5233055;28;20101;-78
2020/12/01 01:00:23;;;;;;;17.55;12.93;;;;;;;4.09;100.00;100375.56;5233229;28;20028;-79
2020/12/01 01:02:54;;;;;;;15.90;11.90;;;;;;;4.22;100.00;100377.97;5232558;28;20032;-81
2020/12/01 01:05:24;;;;;;;16.88;11.63;;;;;;;4.21;100.00;100375.41;5231510;28;20629;-81
2020/12/01 01:07:55;;;;;;;16.40;11.93;;;;;;;4.14;100.00;100381.53;5231203;28;20028;-80
2020/12/01 01:10:32;;;;;;;17.15;11.88;;;;;;;4.08;100.00;100371.25;5232486;28;20418;-81
2020/12/01 01:13:03;;;;;;;16.95;12.15;;;;;;;4.04;100.00;100373.03;5231342;28;20024;-76
2020/12/01 01:15:34;;;;;;;16.30;11.85;;;;;;;4.10;100.00;100372.13;5228120;28;20032;-81
2020/12/01 01:18:05;;;;;;;15.05;11.13;;;;;;;4.13;100.00;100374.66;5233537;28;20566;-80
2020/12/01 01:20:35;;;;;;;15.40;11.07;;;;;;;4.27;100.00;100363.25;5231426;28;20045;-78
2020/12/01 01:23:05;;;;;;;15.75;11.05;;;;;;;4.23;100.00;100359.00;5232399;28;20042;-80
2020/12/01 01:25:35;;;;;;;16.65;12.15;;;;;;;4.11;100.00;100359.16;5231206;28;20092;-79
2020/12/01 01:28:06;;;;;;;16.30;11.73;;;;;;;4.07;100.00;100356.63;5219528;28;20027;-81
2020/12/01 01:30:40;;;;;;;17.48;12.98;;;;;;;4.06;100.00;100355.78;5230294;28;20081;-79
2020/12/01 01:33:11;;;;;;;18.88;13.25;;;;;;;4.03;100.00;100355.81;5231212;28;20267;-81
2020/12/01 01:35:42;;;;;;;17.67;13.35;;;;;;;4.09;100.00;100350.56;5232001;28;20074;-79
2020/12/01 01:38:12;;;;;;;18.88;13.80;;;;;;;4.14;100.00;100347.91;5230097;28;20574;-80
2020/12/01 01:40:42;;;;;;;20.08;13.75;;;;;;;4.23;100.00;100343.47;5232059;28;20021;-80
2020/12/01 01:43:13;;;;;;;21.15;15.00;;;;;;;4.17;100.00;100345.28;5231070;28;20032;-80
2020/12/01 01:45:46;;;;;;;24.75;17.13;;;;;;;4.12;100.00;100345.34;5232315;28;20020;-79
2020/12/01 01:48:32;;;;;;;22.63;16.25;;;;;;;4.24;100.00;100346.91;5230712;28;20632;-81
2020/12/01 01:51:14;;;;;;;23.92;16.25;;;;;;;4.30;100.00;100336.50;5231095;28;20437;-80
2020/12/01 01:53:48;;;;;;;25.13;16.80;;;;;;;4.23;100.00;100343.47;5232147;28;20029;-77
2020/12/01 01:56:33;;;;;;;22.92;16.55;;;;;;;4.10;100.00;100341.94;5232512;28;20028;-79
2020/12/01 01:59:05;;;;;;;23.20;17.20;;;;;;;4.18;100.00;100334.94;5239712;28;20028;-81
2020/12/01 02:01:35;;;;;;;22.77;17.13;;;;;;;4.11;100.00;100328.13;5230869;28;20597;-82
2020/12/01 02:04:09;;;;;;;24.45;17.27;;;;;;;4.08;100.00;100333.34;5230309;28;20044;-80
2020/12/01 02:06:44;;;;;;;24.23;17.50;;;;;;;4.12;100.00;100323.81;5230108;28;20047;-78
2020/12/01 02:09:33;;;;;;;25.83;18.13;;;;;;;4.28;100.00;100313.22;5231499;28;20052;-79
2020/12/01 02:12:06;;;;;;;23.30;17.15;;;;;;;4.25;100.00;100310.69;5231551;28;20113;-81
2020/12/01 02:14:41;;;;;;;24.23;17.08;;;;;;;4.13;100.00;100308.25;5230845;28;20047;-81
2020/12/01 02:17:26;;;;;;;25.52;18.02;;;;;;;4.34;100.00;100302.81;5227173;28;20025;-79
2020/12/01 02:20:07;;;;;;;27.27;19.13;;;;;;;4.21;100.00;100305.56;5226009;28;20024;-80
2020/12/01 02:22:41;;;;;;;28.13;19.83;;;;;;;4.20;100.00;100302.16;5226027;28;20279;-80
2020/12/01 02:25:13;;;;;;;30.10;20.40;;;;;;;4.14;100.00;100302.22;5226092;28;20036;-79
2020/12/01 02:27:49;;;;;;;28.60;19.58;;;;;;;4.16;100.00;100305.63;5223992;28;20478;-80
2020/12/01 02:30:19;;;;;;;27.92;20.88;;;;;;;4.01;100.00;100311.03;5225407;28;20119;-80
2020/12/01 02:32:49;;;;;;;30.02;21.20;;;;;;;4.09;100.00;100298.00;5225481;28;20025;-80
2020/12/01 02:35:20;;;;;;;29.52;20.77;;;;;;;4.09;100.00;100303.19;5225823;28;20623;-80
2020/12/01 02:37:50;;;;;;;29.33;20.88;;;;;;;4.06;100.00;100301.47;5225278;28;20029;-80
2020/12/01 02:40:20;;;;;;;27.83;20.42;;;;;;;4.05;100.00;100297.19;5225265;28;20081;-81
2020/12/01 02:42:51;;;;;;;27.92;19.85;;;;;;;4.05;100.00;100297.19;5224535;28;20029;-79
2020/12/01 02:45:21;;;;;;;30.45;20.67;;;;;;;4.02;100.00;100297.25;5224104;28;20106;-80
2020/12/01 02:47:52;;;;;;;27.70;19.63;;;;;;;4.14;100.00;100291.88;5224031;28;20025;-81
2020/12/01 02:50:22;;;;;;;28.20;19.55;;;;;;;4.03;100.00;100283.44;5225446;28;20082;-80
2020/12/01 02:52:52;;;;;;;29.52;20.27;;;;;;;4.06;100.00;100290.28;5225280;28;20482;-80
2020/12/01 02:55:22;;;;;;;29.13;20.40;;;;;;;4.06;100.00;100292.84;5227287;28;20106;-80
2020/12/01 02:57:53;;;;;;;26.63;18.60;;;;;;;3.99;100.00;100281.75;5225706;28;20028;-79
2020/12/01 03:00:23;;;;;;;25.27;18.15;;;;;;;4.18;100.00;100288.38;5226624;28;20025;-79
2020/12/01 03:02:53;;;;;;;26.60;17.90;;;;;;;4.06;100.00;100285.97;5224727;28;20169;-79
2020/12/01 03:05:23;;;;;;;26.55;18.33;;;;;;;4.21;100.00;100290.94;5226785;28;20025;-79
2020/12/01 03:07:54;;;;;;;24.08;17.33;;;;;;;4.16;100.00;100294.44;5226879;28;20024;-80
2020/12/01 03:10:24;;;;;;;25.25;17.10;;;;;;;4.07;100.00;100297.16;5226208;28;20479;-79
2020/12/01 03:12:54;;;;;;;25.75;17.52;;;;;;;4.14;100.00;100297.03;5225802;28;20029;-79
2020/12/01 03:15:25;;;;;;;22.20;17.23;;;;;;;4.08;100.00;100286.81;5225654;28;20116;-79
2020/12/01 03:17:55;;;;;;;25.63;17.80;;;;;;;4.24;100.00;100296.03;5225640;28;20032;-79
2020/12/01 03:20:25;;;;;;;26.48;17.48;;;;;;;3.97;100.00;100293.84;5226087;28;20100;-79
2020/12/01 03:22:56;;;;;;;22.25;16.60;;;;;;;4.18;100.00;100303.91;5226466;28;20025;-79
2020/12/01 03:25:26;;;;;;;20.67;15.63;;;;;;;4.05;100.00;100298.91;5226580;28;20049;-80
2020/12/01 03:27:56;;;;;;;21.58;15.60;;;;;;;3.99;100.00;100297.25;5224530;28;20036;-79
2020/12/01 03:30:26;;;;;;;21.88;15.80;;;;;;;4.04;100.00;100295.47;5225865;28;20025;-79
2020/12/01 03:32:57;;;;;;;22.27;15.73;;;;;;;4.17;100.00;100299.63;5223619;28;20067;-79
2020/12/01 03:35:27;;;;;;;22.80;16.60;;;;;;;4.20;100.00;100299.56;5226291;28;20037;-79
2020/12/01 03:37:58;;;;;;;23.40;16.15;;;;;;;4.18;100.00;100293.56;5224996;28;20029;-79
2020/12/01 03:40:28;;;;;;;25.05;17.45;;;;;;;4.09;100.00;100293.69;5226930;28;20017;-79
2020/12/01 03:42:58;;;;;;;22.52;16.13;;;;;;;4.26;100.00;100302.06;5227703;28;20037;-79
2020/12/01 03:45:29;;;;;;;22.13;16.08;;;;;;;4.26;100.00;100289.13;5228142;28;20036;-80
2020/12/01 03:47:59;;;;;;;24.30;16.83;;;;;;;4.25;100.00;100295.16;5226022;28;20021;-79
2020/12/01 03:50:30;;;;;;;22.17;15.82;;;;;;;4.21;100.00;100290.94;5225907;28;20029;-79
2020/12/01 03:53:00;;;;;;;21.73;16.27;;;;;;;4.31;100.00;100289.91;5227126;28;20056;-80
2020/12/01 03:55:31;;;;;;;22.25;15.02;;;;;;;4.19;100.00;100289.22;5225768;28;20044;-79
2020/12/01 03:58:01;;;;;;;21.20;15.38;;;;;;;4.07;100.00;100279.94;5228183;28;20032;-80
2020/12/01 04:00:32;;;;;;;22.42;15.65;;;;;;;4.22;100.00;100279.69;5227846;28;20122;-79
2020/12/01 04:03:02;;;;;;;20.52;14.80;;;;;;;4.14;100.00;100280.69;5227893;28;20041;-79
2020/12/01 04:05:32;;;;;;;19.40;14.23;;;;;;;4.06;100.00;100280.81;5225564;28;20056;-80
2020/12/01 04:08:03;;;;;;;19.48;14.57;;;;;;;4.04;100.00;100284.28;5225381;28;20027;-80
2020/12/01 04:10:33;;;;;;;19.35;14.32;;;;;;;4.05;100.00;100275.63;5225060;28;20084;-80
2020/12/01 04:13:04;;;;;;;19.02;13.50;;;;;;;4.16;100.00;100277.19;5225172;28;20570;-80
2020/12/01 04:15:34;;;;;;;19.77;13.60;;;;;;;4.20;100.00;100281.47;5227163;28;20029;-79
2020/12/01 04:18:05;;;;;;;19.42;13.88;;;;;;;4.09;100.00;100287.66;5226871;28;20411;-80
2020/12/01 04:20:35;;;;;;;20.42;14.23;;;;;;;4.07;100.00;100282.50;5226397;28;20036;-79
2020/12/01 04:23:05;;;;;;;19.00;13.82;;;;;;;4.13;100.00;100279.81;5225613;28;20021;-79
2020/12/01 04:25:35;;;;;;;19.45;14.13;;;;;;;4.11;100.00;100279.00;5227577;28;20100;-80
2020/12/01 04:28:06;;;;;;;18.13;13.55;;;;;;;4.19;100.00;100278.88;5226021;28;20029;-80
2020/12/01 04:30:36;;;;;;;18.58;13.02;;;;;;;4.13;100.00;100273.81;5226548;28;20024;-79
2020/12/01 04:33:06;;;;;;;18.55;13.35;;;;;;;4.25;100.00;100269.31;5224484;28;20595;-79
2020/12/01 04:35:37;;;;;;;18.00;13.75;;;;;;;4.15;100.00;100267.72;5226726;28;20094;-80
2020/12/01 04:38:07;;;;;;;19.63;14.45;;;;;;;4.15;100.00;100275.47;5225168;28;20456;-80
2020/12/01 04:40:39;;;;;;;20.15;13.80;;;;;;;4.20;100.00;100268.53;5225080;28;20060;-79
2020/12/01 04:43:27;;;;;;;17.90;12.75;;;;;;;4.32;100.00;100270.06;5223689;28;20071;-79
2020/12/01 04:45:59;;;;;;;18.50;13.50;;;;;;;4.32;100.00;100270.06;5225579;28;20052;-79
2020/12/01 04:48:47;;;;;;;20.67;12.85;;;;;;;4.30;100.00;100271.84;5225055;28;20032;-79
2020/12/01 04:51:20;;;;;;;19.35;12.43;;;;;;;4.34;100.00;100274.34;5224517;28;20025;-79
2020/12/01 04:54:28;;;;;;;16.23;11.82;;;;;;;4.29;100.00;100273.53;5224495;28;20048;-79
2020/12/01 04:57:12;;;;;;;19.63;12.70;;;;;;;4.30;100.00;100277.00;5223717;28;20013;-80
2020/12/01 05:00:24;;;;;;;15.73;12.20;;;;;;;4.35;100.00;100281.22;5223131;28;20379;-80
2020/12/01 05:03:11;;;;;;;17.33;12.32;;;;;;;4.47;100.00;100282.78;5179323;28;20038;-79
2020/12/01 05:09:05;;;;;;;16.05;11.88;;;;;;;4.53;100.00;100291.28;5227749;28;20058;-78
2020/12/01 05:11:45;;;;;;;16.52;11.82;;;;;;;4.48;100.00;100281.88;5227923;28;20025;-80
2020/12/01 05:14:24;;;;;;;16.65;11.90;;;;;;;4.40;100.00;100284.59;5227401;28;20100;-79
2020/12/01 05:17:28;;;;;;;16.65;11.43;;;;;;;4.35;100.00;100286.41;5225657;28;20489;-79
2020/12/01 05:19:59;;;;;;;15.65;11.45;;;;;;;4.53;100.00;100295.59;5227228;28;20032;-79
2020/12/01 05:22:29;;;;;;;14.93;11.45;;;;;;;4.42;100.00;100298.34;5227112;28;20025;-80
2020/12/01 05:25:01;;;;;;;15.73;11.50;;;;;;;4.35;100.00;100306.22;5226146;28;20021;-78
2020/12/01 05:27:34;;;;;;;17.20;11.85;;;;;;;4.28;100.00;100300.28;5226783;28;20445;-79
2020/12/01 05:30:17;;;;;;;16.00;11.65;;;;;;;4.41;100.00;100296.66;5226002;28;20025;-79
2020/12/01 05:33:17;;;;;;;17.02;11.55;;;;;;;4.56;100.00;100295.53;5227220;28;20524;-80
2020/12/01 05:35:59;;;;;;;16.30;11.18;;;;;;;4.36;100.00;100297.59;5227481;28;20515;-80
2020/12/01 05:38:31;;;;;;;15.98;11.48;;;;;;;4.44;100.00;100295.75;5271780;23;20616;-78
2020/12/01 05:41:27;;;;;;;15.68;11.93;;;;;;;4.51;100.00;100289.59;5235866;28;20037;-78
2020/12/01 05:43:58;;;;;;;;;;;;;;;4.40;100.00;100289.78;5239211;28;20021;-78
2020/12/01 05:46:41;;;;;;;18.48;11.60;;;;;;;4.42;100.00;100297.47;5246084;28;19916;-78
2020/12/01 05:49:29;;;;;;;15.93;11.45;;;;;;;4.64;100.00;100294.53;5259074;28;20020;-78
2020/12/01 05:52:15;;;;;;;14.07;10.20;;;;;;;4.79;100.00;100298.63;5256512;28;20029;-78
2020/12/01 05:54:48;;;;;;;14.10;10.48;;;;;;;4.55;100.00;100305.06;5256898;28;20113;-78
2020/12/01 05:57:25;;;;;;;14.15;10.52;;;;;;;4.53;100.00;100306.81;5237804;28;20100;-78
2020/12/01 06:00:05;;;;;;;14.35;10.43;;;;;;;4.54;100.00;100307.66;5255104;28;20025;-78
2020/12/01 06:03:07;;;;;;;15.00;11.20;;;;;;;4.53;100.00;100314.56;5255413;28;20029;-78
2020/12/01 06:05:39;;;;;;;14.63;11.10;;;;;;;4.44;100.00;100311.28;5257730;28;20073;-78
2020/12/01 06:08:41;;;;;;;16.63;12.15;;;;;;;4.54;100.00;100313.69;5249316;28;20025;-78
2020/12/01 06:11:56;;;;;;;15.77;11.55;;;;;;;4.51;100.00;100313.75;5231367;28;20036;-78
2020/12/01 06:14:37;;;;;;;15.20;11.70;;;;;;;4.39;100.00;100324.28;5232430;28;20037;-78
2020/12/01 06:17:23;;;;;;;16.85;11.77;;;;;;;4.52;100.00;100314.59;5229693;28;20029;-78
2020/12/01 06:20:02;;;;;;;16.63;12.45;;;;;;;4.38;100.00;100319.97;5233957;28;20248;-78
2020/12/01 06:23:24;;;;;;;17.50;13.05;;;;;;;4.35;100.00;100327.78;5223483;28;20112;-78
2020/12/01 06:26:19;;;;;;;18.73;13.27;;;;;;;4.29;100.00;100327.84;5219072;28;20542;-78
2020/12/01 06:29:31;;;;;;;16.17;12.15;;;;;;;4.49;100.00;100335.34;5247171;28;20032;-78
2020/12/01 06:32:33;;;;;;;16.92;12.60;;;;;;;4.46;100.00;100331.06;5246822;28;20048;-78
2020/12/01 06:35:22;;;;;;;18.33;13.27;;;;;;;4.40;100.00;100327.69;5253354;28;20032;-78
2020/12/01 06:38:15;;;;;;;17.77;13.10;;;;;;;4.47;100.00;100332.75;5251309;28;20025;-78
2020/12/01 06:41:01;;;;;;;17.35;13.18;;;;;;;4.49;100.00;100325.00;5238364;28;20025;-78
2020/12/01 06:43:45;;;;;;;19.80;13.88;;;;;;;4.43;100.00;100332.84;5235072;28;20099;-78
2020/12/01 06:46:37;;;;;;;18.50;14.13;;;;;;;4.35;100.00;100339.84;5238478;28;20033;-78
2020/12/01 06:49:11;;;;;;;19.50;14.10;;;;;;;4.32;100.00;100348.50;5236027;28;20252;-78
2020/12/01 06:51:48;;;;;;;22.52;15.30;;;;;;;4.40;100.00;100351.84;5236374;28;20080;-78
2020/12/01 06:54:19;;;;;;;21.95;15.45;;;;;;;4.29;100.00;100352.88;5236802;28;20040;-77
2020/12/01 06:57:20;;;;;;;20.08;14.85;;;;;;;4.24;100.00;100358.13;5227826;28;20023;-78
2020/12/01 06:59:51;;;;;;;20.85;15.68;;;;;;;4.25;100.00;100362.41;5238281;28;20024;-78
2020/12/01 07:02:21;;;;;;;19.52;14.95;;;;;;;4.24;100.00;100360.69;5236937;28;20052;-79
2020/12/01 07:05:26;;;;;;;21.98;15.52;;;;;;;4.28;100.00;100362.34;5235250;28;20025;-78
2020/12/01 07:07:56;;;;;;;19.77;14.98;;;;;;;4.54;100.00;100369.75;5235442;28;20430;-78
2020/12/01 07:10:32;;;;;;;20.85;15.48;;;;;;;4.28;100.00;100367.53;5237735;28;20020;-78
2020/12/01 07:13:06;;;;;;;21.45;15.85;;;;;;;4.50;100.00;100381.03;5237553;28;20044;-79
2020/12/01 07:15:46;;;;;;;20.00;14.20;;;;;;;4.43;100.00;100377.66;5236880;28;20021;-79
2020/12/01 07:18:25;;;;;;;19.45;14.88;;;;;;;4.35;100.00;100381.25;5237072;28;20029;-78
2020/12/01 07:21:18;;;;;;;19.90;14.35;;;;;;;4.36;100.00;100372.59;5236176;28;20025;-78
2020/12/01 07:23:55;;;;;;;18.10;13.80;;;;;;;4.35;100.00;100374.34;5235403;28;20050;-78
2020/12/01 07:26:41;;;;;;;19.15;13.48;;;;;;;4.58;100.00;100377.44;5229737;28;20030;-78
2020/12/01 07:29:23;;;;;;;17.35;12.95;;;;;;;4.52;100.00;100382.72;5218124;28;20064;-78
2020/12/01 07:32:05;;;;;;;15.57;12.00;;;;;;;4.63;100.00;100378.22;5234058;28;20042;-79
2020/12/01 07:34:35;;;;;;;17.67;12.70;;;;;;;4.45;100.00;100381.09;5234502;28;20025;-78
2020/12/01 07:37:55;;;;;;;15.32;11.68;;;;;;;4.40;100.00;100388.06;5236120;28;20025;-78
2020/12/01 07:40:31;;;;;;;20.52;12.77;;;;;;;4.65;100.00;100392.00;5222759;28;20053;-78
2020/12/01 07:43:04;;;;;;;16.38;12.43;;;;;;;4.58;100.00;100387.81;5235077;28;20043;-78
2020/12/01 07:45:34;;;;;;;15.10;11.77;;;;;;;4.70;100.00;100397.97;5224788;28;20117;-78
2020/12/01 07:48:04;;;;;;;16.63;12.60;;;;;;;4.56;100.00;100393.88;5232133;28;20068;-78
2020/12/01 07:50:35;;;;;;;17.10;12.63;;;;;;;4.40;100.00;100402.72;5234744;28;20095;-78
2020/12/01 07:53:12;;;;;;;17.40;13.18;;;;;;;4.38;100.00;100410.50;5217263;28;20024;-78
2020/12/01 07:55:49;;;;;;;17.65;12.98;;;;;;;4.29;100.00;100410.63;5215835;28;20583;-78
2020/12/01 07:58:22;;;;;;;19.58;13.32;;;;;;;4.41;100.00;100409.59;5233725;28;20025;-77
2020/12/01 08:01:00;;;;;;;17.23;12.68;;;;;;;4.52;100.00;100408.59;5227142;28;20559;-78
2020/12/01 08:03:37;;;;;;;16.75;12.63;;;;;;;4.50;100.00;100412.06;5228699;28;20029;-77
2020/12/01 08:06:14;;;;;;;17.85;12.32;;;;;;;4.48;100.00;100417.25;5231010;28;20029;-77
2020/12/01 08:08:46;;;;;;;17.80;13.45;;;;;;;4.56;100.00;100425.78;5232028;28;20036;-78
2020/12/01 08:11:20;;;;;;;17.85;13.00;;;;;;;4.54;100.00;100418.91;5232425;28;20032;-78
2020/12/01 08:13:53;;;;;;;17.33;12.82;;;;;;;4.60;100.00;100424.84;5231441;28;20047;-77
2020/12/01 08:16:28;;;;;;;19.88;13.18;;;;;;;4.38;100.00;100430.34;5232015;28;20032;-77
2020/12/01 08:18:59;;;;;;;18.17;13.70;;;;;;;4.43;100.00;100429.41;5231548;28;20051;-77
2020/12/01 08:21:33;;;;;;;18.10;13.32;;;;;;;4.57;100.00;100432.66;5225891;28;20461;-78
2020/12/01 08:24:06;;;;;;;17.08;12.20;;;;;;;4.65;100.00;100429.97;5222904;28;20029;-78
2020/12/01 08:26:37;;;;;;;15.80;11.65;;;;;;;4.66;100.00;100422.19;5220630;28;20032;-78
2020/12/01 08:29:16;;;;;;;14.98;11.30;;;;;;;4.84;100.00;100427.06;5233709;28;20016;-78
2020/12/01 08:32:34;;;;;;;15.63;11.48;;;;;;;4.87;100.00;100440.00;5216677;28;20021;-78
2020/12/01 08:35:22;;;;;;;15.00;10.93;;;;;;;5.04;100.00;100434.56;5210786;28;20053;-79
2020/12/01 08:37:59;;;;;;;15.68;11.18;;;;;;;4.93;100.00;100436.44;5190260;28;20042;-78
2020/12/01 08:40:46;;;;;;;13.48;10.30;;;;;;;5.03;100.00;100438.91;5201590;28;20090;-78
2020/12/01 08:43:35;;;;;;;14.70;11.10;;;;;;;5.03;100.00;100438.91;5215779;28;20037;-79
2020/12/01 08:46:10;;;;;;;13.10;10.07;;;;;;;4.97;100.00;100438.97;5232205;28;20104;-79
2020/12/01 08:49:06;;;;;;;13.43;10.13;;;;;;;4.95;100.00;100448.50;5247450;28;20067;-79
2020/12/01 08:51:57;;;;;;;10.73;7.95;;;;;;;4.99;100.00;100452.75;5258598;28;20035;-78
2020/12/01 08:54:34;;;;;;;14.23;10.77;;;;;;;5.05;100.00;100452.66;5259157;28;20039;-79
2020/12/01 08:57:04;;;;;;;13.45;10.27;;;;;;;5.07;100.00;100457.81;5256452;28;20036;-79
2020/12/01 08:59:42;;;;;;;16.38;12.20;;;;;;;5.03;100.00;100469.97;5252330;28;20023;-78
2020/12/01 09:02:15;;;;;;;18.30;13.10;;;;;;;5.07;100.00;100465.56;5229391;28;20025;-79
2020/12/01 09:04:46;;;;;;;16.50;13.45;;;;;;;5.16;100.00;100465.44;5251925;28;20029;-79
2020/12/01 09:07:24;;;;;;;20.60;14.02;;;;;;;5.17;100.00;100475.75;5255397;28;20028;-79
2020/12/01 09:10:11;;;;;;;19.80;14.40;;;;;;;5.15;100.00;100481.88;5255090;28;20394;-79
2020/12/01 09:23:32;;;;;;;15.05;11.95;;;;;;;5.06;100.00;100494.94;5237819;28;20096;-79
2020/12/01 09:26:16;;;;;;;17.98;12.63;;;;;;;5.10;100.00;100497.47;5246733;28;20122;-79
2020/12/01 09:28:50;;;;;;;16.80;12.20;;;;;;;5.12;100.00;100500.88;5240817;28;20023;-79
2020/12/01 09:31:23;;;;;;;15.13;11.05;;;;;;;5.17;100.00;100495.66;5233752;28;20036;-79
2020/12/01 09:33:55;;;;;;;18.42;12.02;;;;;;;5.12;100.00;100500.06;5258038;28;20029;-79
2020/12/01 09:36:26;;;;;;;14.20;10.98;;;;;;;5.15;100.00;100507.78;5244785;28;20052;-79
2020/12/01 09:38:56;;;;;;;14.52;10.73;;;;;;;5.01;100.00;100507.94;5245897;28;20054;-79
2020/12/01 09:41:27;;;;;;;14.02;10.15;;;;;;;5.23;100.00;100504.19;5256874;28;20033;-79
2020/12/01 09:46:47;;;;;;;12.07;8.90;;;;;;;5.27;100.00;100505.84;5238238;28;20040;-79
2020/12/01 09:49:17;;;;;;;12.20;8.77;;;;;;;5.21;100.00;100508.53;5232690;28;20052;-79
2020/12/01 09:51:58;;;;;;;17.23;11.98;;;;;;;5.28;100.00;100504.09;5232312;28;20036;-79
2020/12/01 09:54:41;;;;;;;19.42;14.20;;;;;;;5.33;100.00;100505.75;5234377;28;20496;-78
2020/12/01 09:57:26;;;;;;;19.00;14.23;;;;;;;5.27;100.00;100518.78;5227774;28;20509;-78
2020/12/01 10:10:56;;;;;;;22.90;16.80;;;;;;;5.19;100.00;100523.22;5233549;28;20033;-79
2020/12/01 10:13:52;;;;;;;20.67;15.23;;;;;;;5.28;100.00;100525.69;5215095;28;20021;-79
2020/12/01 10:19:39;;;;;;;23.35;16.60;;;;;;;5.18;100.00;100531.88;5212314;28;20075;-79
2020/12/01 10:36:04;;;;;;;15.13;10.18;;;;;;;5.23;100.00;100544.75;5248547;28;20055;-78
2020/12/01 10:38:34;;;;;;;15.75;10.90;;;;;;;5.31;100.00;100538.59;5257921;28;20092;-78
2020/12/01 10:41:05;;;;;;;16.83;10.18;;;;;;;5.32;100.00;100536.88;5258331;28;20032;-79
2020/12/01 10:43:35;;;;;;;15.13;10.15;;;;;;;5.31;100.00;100548.13;5245227;28;20263;-79
2020/12/01 10:46:08;;;;;;;16.75;9.73;;;;;;;5.41;100.00;100546.19;5231310;28;20048;-79
2020/12/01 10:48:39;;;;;;;15.10;9.63;;;;;;;5.36;100.00;100547.13;5233581;28;20029;-78
2020/12/01 10:51:10;;;;;;;12.60;9.38;;;;;;;5.35;100.00;100544.59;5233365;28;20031;-79
2020/12/01 10:53:40;;;;;;;14.38;9.57;;;;;;;5.29;100.00;100539.50;5222680;28;20089;-79
2020/12/01 10:56:10;;;;;;;15.00;10.70;;;;;;;5.23;100.00;100543.03;5217675;28;20084;-79
2020/12/01 10:58:41;;;;;;;13.98;9.88;;;;;;;5.61;100.00;100544.13;5239300;28;20024;-78
2020/12/01 11:01:11;;;;;;;13.98;9.55;;;;;;;5.47;100.00;100555.63;5232408;28;20037;-78
2020/12/01 11:03:41;;;;;;;11.93;8.75;;;;;;;5.36;100.00;100557.50;5235363;28;20021;-79
2020/12/01 11:06:12;;;;;;;14.10;9.02;;;;;;;5.53;100.00;100552.91;5216568;28;20090;-79
2020/12/01 11:08:42;;;;;;;13.32;9.63;;;;;;;5.29;100.00;100565.41;5216996;28;20017;-78
2020/12/01 11:11:18;;;;;;;14.43;9.55;;;;;;;5.43;100.00;100574.69;5217291;28;20061;-78
2020/12/01 11:13:49;;;;;;;13.52;9.68;;;;;;;5.34;100.00;100572.22;5216751;28;20078;-79
2020/12/01 11:16:19;;;;;;;14.82;9.45;;;;;;;5.32;100.00;100573.97;5234778;28;20029;-78
2020/12/01 11:18:50;;;;;;;20.88;14.65;;;;;;;5.24;100.00;100573.25;5238105;28;20064;-78
2020/12/01 11:21:20;;;;;;;18.83;13.38;;;;;;;5.31;100.00;100572.28;5237888;28;20104;-78
2020/12/01 11:23:51;;;;;;;17.52;13.63;;;;;;;5.44;100.00;100571.22;5239020;28;20029;-79
2020/12/01 11:26:22;;;;;;;19.77;14.50;;;;;;;5.37;100.00;100569.59;5232206;28;20032;-79
2020/12/01 11:28:52;;;;;;;22.42;15.95;;;;;;;5.48;100.00;100572.88;5240366;28;20021;-79
2020/12/01 11:31:23;;;;;;;20.17;14.95;;;;;;;5.51;100.00;100568.50;5232601;28;20053;-78
2020/12/01 11:34:00;;;;;;;20.83;14.88;;;;;;;5.39;100.00;100570.44;5256092;28;20023;-79
2020/12/01 11:36:32;;;;;;;19.95;14.95;;;;;;;5.45;100.00;100575.53;5258646;28;20107;-79
2020/12/01 11:39:10;;;;;;;19.50;14.55;;;;;;;5.48;100.00;100568.56;5233143;22;20091;-79
2020/12/01 11:41:41;;;;;;;20.38;14.75;;;;;;;5.52;100.00;100570.22;5202934;28;20179;-79
2020/12/01 11:44:13;;;;;;;19.00;14.35;;;;;;;5.53;100.00;100571.06;5202281;28;20029;-80
2020/12/01 11:46:44;;;;;;;20.92;14.93;;;;;;;5.54;100.00;100584.00;5216456;28;20068;-79
2020/12/01 11:49:14;;;;;;;20.67;14.48;;;;;;;5.54;100.00;100583.16;5202277;28;20022;-81
2020/12/01 11:51:47;;;;;;;18.60;13.43;;;;;;;5.46;100.00;100582.41;5202063;28;20040;-81
2020/12/01 11:54:19;;;;;;;18.90;13.82;;;;;;;5.40;100.00;100588.53;5201250;28;20025;-80
2020/12/01 11:56:49;;;;;;;18.42;13.77;;;;;;;5.42;100.00;100591.94;5202318;28;20102;-78
2020/12/01 11:59:20;;;;;;;18.30;13.48;;;;;;;5.33;100.00;100593.00;5201665;28;20128;-78
2020/12/01 12:01:50;;;;;;;15.98;12.15;;;;;;;5.42;100.00;100598.88;5202407;28;20033;-79
2020/12/01 12:04:20;;;;;;;16.73;11.98;;;;;;;5.37;100.00;100600.69;5201758;28;20402;-78
2020/12/01 12:06:51;;;;;;;17.65;12.23;;;;;;;5.39;100.00;100593.75;5202023;28;20041;-80
2020/12/01 12:09:21;;;;;;;18.92;13.25;;;;;;;5.31;100.00;100605.94;5201453;28;20021;-80
2020/12/01 12:11:51;;;;;;;18.00;12.80;;;;;;;5.36;100.00;100608.47;5200609;28;20105;-81
2020/12/01 12:14:22;;;;;;;17.60;11.70;;;;;;;5.39;100.00;100606.72;5200949;28;20034;-78
2020/12/01 12:16:52;;;;;;;18.83;12.50;;;;;;;5.30;100.00;100614.59;5205325;28;20022;-79
2020/12/01 12:19:22;;;;;;;16.05;11.90;;;;;;;5.28;100.00;100611.19;5204768;28;20025;-79
2020/12/01 12:21:52;;;;;;;16.35;12.27;;;;;;;5.37;100.00;100613.66;5205871;28;20487;-78
2020/12/01 12:24:23;;;;;;;18.50;13.20;;;;;;;5.36;100.00;100611.06;5206075;28;20103;-82
2020/12/01 12:26:53;;;;;;;17.15;12.65;;;;;;;5.38;100.00;100613.63;5205816;28;20033;-81
2020/12/01 12:29:23;;;;;;;17.45;13.00;;;;;;;5.31;100.00;100626.69;5205229;28;20018;-80
2020/12/01 12:31:53;;;;;;;22.92;15.63;;;;;;;5.23;100.00;100625.94;5205595;28;20079;-81
2020/12/01 12:34:24;;;;;;;20.98;15.52;;;;;;;5.41;100.00;100623.94;5205052;28;20025;-80